East Stone Gap, Virginia
Current Conditions -  °F | °C
As of 10:55 AM on Thursday 27 Nov 2014 (Local Time) from KLNP Reporting Station
Light Snow Light Snow  
Wind Chill: 23°   Ceiling: 700
Heat Index: 30°   Visibility: 7mi
Dew Point: 30°   Wind: 7mph
Humidity: 100%   Direction: 310°NW
Pressure: 30.14"   Gusts: NA
Location:  36.87°N, 82.74°W
Report Text: KLNP 271555Z AUTO 31006KT 7SM -SN OVC007 M01/M01 A3014 RMK AO2
Loading
Personal Weather Stations






























Interactive Weather Map New forecast layout! Learn more

10-Day Weather Forecast

Advertisements
Track Severe Weather on mobile